Time;durP1;ratioP1;P1;durP2;ratioP2;P2;SDS_P1;SDS_P2;PMS_P1;PMS_P2;Temp;Humidity;BMP_temperature;BMP_pressure;BME280_temperature;BME280_humidity;BME280_pressure;Samples;Min_cycle;Max_cycle;Signal;HPM_P1;HPM_P2
2024/03/06 00:00:40;;;;;;;3.40;2.20;;;;;;;6.38;100.00;152998.81;5050109;28;20442;-81
2024/03/06 00:03:07;;;;;;;3.90;2.47;;;;;;;6.39;100.00;153001.38;5065825;28;20455;-81
2024/03/06 00:05:34;;;;;;;4.40;2.83;;;;;;;6.38;100.00;152998.81;5045939;28;20206;-81
2024/03/06 00:08:03;;;;;;;7.90;2.70;;;;;;;6.40;100.00;153003.97;5044225;28;21010;-81
2024/03/06 00:10:31;;;;;;;4.00;3.20;;;;;;;6.45;100.00;153018.16;5046623;28;20506;-81
2024/03/06 00:12:57;;;;;;;2.87;2.57;;;;;;;6.43;100.00;153011.72;5066315;28;20969;-81
2024/03/06 00:15:24;;;;;;;5.73;2.67;;;;;;;6.41;100.00;153007.81;5046052;28;20953;-82
2024/03/06 00:17:50;;;;;;;4.70;2.93;;;;;;;6.47;100.00;153023.31;5045393;28;20454;-81
2024/03/06 00:20:17;;;;;;;4.13;3.10;;;;;;;6.46;100.00;153019.47;5044393;28;20466;-82
2024/03/06 00:22:44;;;;;;;5.30;3.43;;;;;;;6.50;100.00;153029.75;5050710;28;20449;-81
2024/03/06 00:25:10;;;;;;;2.60;2.20;;;;;;;6.47;100.00;153023.31;5040691;28;20463;-81
2024/03/06 00:27:38;;;;;;;3.20;2.77;;;;;;;6.47;100.00;153022.00;5044374;28;20447;-81
2024/03/06 00:30:06;;;;;;;4.80;2.50;;;;;;;6.46;100.00;153019.47;5047748;28;20580;-82
2024/03/06 00:32:33;;;;;;;3.43;2.40;;;;;;;6.47;100.00;153022.00;5028657;28;21074;-82
2024/03/06 00:34:59;;;;;;;4.03;2.37;;;;;;;6.52;100.00;153034.91;5042081;28;20458;-82
2024/03/06 00:37:26;;;;;;;4.03;2.27;;;;;;;6.56;100.00;153045.25;5060454;28;20493;-81
2024/03/06 00:39:53;;;;;;;3.43;2.40;;;;;;;6.57;100.00;153047.81;5036660;28;20869;-82
2024/03/06 00:42:19;;;;;;;2.57;2.27;;;;;;;6.53;100.00;153037.50;5043067;28;20503;-82
2024/03/06 00:44:47;;;;;;;3.13;2.40;;;;;;;6.53;100.00;153037.50;5024495;28;20473;-82
2024/03/06 00:47:13;;;;;;;5.50;2.57;;;;;;;6.55;100.00;153043.97;5029258;28;20470;-82
2024/03/06 00:49:42;;;;;;;3.00;2.70;;;;;;;6.52;100.00;153036.22;5045445;28;20850;-82
2024/03/06 00:52:09;;;;;;;3.00;2.60;;;;;;;6.50;100.00;153029.75;5044061;28;20939;-82
2024/03/06 00:54:35;;;;;;;4.80;2.80;;;;;;;6.49;100.00;153027.16;5042228;28;20458;-82
2024/03/06 00:57:02;;;;;;;3.63;2.20;;;;;;;6.49;100.00;153027.16;5056799;28;20588;-82
2024/03/06 00:59:29;;;;;;;3.30;2.80;;;;;;;6.47;100.00;153022.00;5044133;28;20494;-82
2024/03/06 01:01:57;;;;;;;3.40;2.30;;;;;;;6.47;100.00;153023.31;5042217;28;20463;-82
2024/03/06 01:04:23;;;;;;;4.00;2.53;;;;;;;6.45;100.00;153016.88;5047514;28;20973;-82
2024/03/06 01:06:49;;;;;;;3.43;2.80;;;;;;;6.45;100.00;153016.88;5045550;28;20479;-82
2024/03/06 01:09:16;;;;;;;3.63;2.73;;;;;;;6.45;100.00;153018.16;5044997;28;20451;-82
2024/03/06 01:11:46;;;;;;;4.30;2.80;;;;;;;6.45;100.00;153016.88;5037084;28;20473;-82
2024/03/06 01:14:13;;;;;;;4.13;3.27;;;;;;;6.43;100.00;153011.72;5024766;28;20447;-82
2024/03/06 01:16:40;;;;;;;3.40;2.63;;;;;;;6.44;100.00;153015.56;5054666;28;21010;-82
2024/03/06 01:19:07;;;;;;;3.57;2.47;;;;;;;6.42;100.00;153009.13;5044102;28;20454;-82
2024/03/06 01:21:34;;;;;;;3.70;2.40;;;;;;;6.41;100.00;153006.53;5038400;28;20687;-82
2024/03/06 01:24:00;;;;;;;5.70;2.73;;;;;;;6.40;100.00;153003.97;5042432;28;20536;-82
2024/03/06 01:26:27;;;;;;;3.40;2.30;;;;;;;6.39;100.00;153002.66;5038413;28;20520;-82
2024/03/06 01:28:54;;;;;;;3.77;2.63;;;;;;;6.38;100.00;152998.81;5044439;28;20803;-82
2024/03/06 01:31:20;;;;;;;3.23;2.67;;;;;;;6.43;100.00;153013.03;5033898;28;20860;-82
2024/03/06 01:33:47;;;;;;;5.33;3.00;;;;;;;6.44;100.00;153014.28;5045540;28;20528;-82
2024/03/06 01:36:14;;;;;;;3.13;2.83;;;;;;;6.43;100.00;153011.72;5043453;28;20497;-82
2024/03/06 01:38:41;;;;;;;3.40;2.87;;;;;;;6.42;100.00;153009.13;5058364;28;20462;-82
2024/03/06 01:41:08;;;;;;;3.03;2.40;;;;;;;6.43;100.00;153011.72;5037010;28;20478;-82
2024/03/06 01:43:38;;;;;;;3.50;2.77;;;;;;;6.46;100.00;153020.72;5043812;28;20937;-82
2024/03/06 01:46:05;;;;;;;3.20;2.90;;;;;;;6.44;100.00;153014.28;5042017;28;20826;-82
2024/03/06 01:48:32;;;;;;;2.73;2.33;;;;;;;6.42;100.00;153009.13;5037785;28;20456;-82
2024/03/06 01:51:00;;;;;;;3.83;2.80;;;;;;;6.41;100.00;153006.53;5042617;28;20451;-82
2024/03/06 01:53:30;;;;;;;4.33;3.27;;;;;;;6.41;100.00;153006.53;5027253;28;20690;-82
2024/03/06 01:55:57;;;;;;;3.70;2.93;;;;;;;6.40;100.00;153005.28;5045327;28;20578;-82
2024/03/06 01:58:24;;;;;;;5.30;3.57;;;;;;;6.40;100.00;153005.28;5036979;28;20469;-82
2024/03/06 02:00:51;;;;;;;4.03;3.10;;;;;;;6.42;100.00;153009.13;5061864;28;20486;-82
2024/03/06 02:03:19;;;;;;;6.90;3.93;;;;;;;6.41;100.00;153006.53;5046146;28;20462;-82
2024/03/06 02:05:45;;;;;;;3.93;3.53;;;;;;;6.34;100.00;152988.47;5048094;28;20950;-82
2024/03/06 02:08:12;;;;;;;4.23;3.07;;;;;;;6.35;100.00;152991.06;5049650;28;20488;-82
2024/03/06 02:10:41;;;;;;;4.73;3.13;;;;;;;6.35;100.00;152991.06;5037908;28;20537;-82
2024/03/06 02:13:07;;;;;;;5.27;3.57;;;;;;;6.36;100.00;152994.91;5047396;28;20571;-82
2024/03/06 02:15:34;;;;;;;4.80;3.43;;;;;;;6.37;100.00;152996.22;5046462;28;21098;-82
2024/03/06 02:18:05;;;;;;;3.90;3.40;;;;;;;6.37;100.00;152997.53;5038385;28;20454;-82
2024/03/06 02:20:34;;;;;;;2.77;2.30;;;;;;;6.38;100.00;152998.81;5048186;28;20462;-82
2024/03/06 02:23:00;;;;;;;4.47;2.73;;;;;;;6.40;100.00;153003.97;5036409;28;20459;-82
2024/03/06 02:25:27;;;;;;;4.00;2.83;;;;;;;6.43;100.00;153013.03;5043929;28;21030;-82
2024/03/06 02:27:53;;;;;;;4.07;3.23;;;;;;;6.42;100.00;153010.41;5041138;28;20446;-82
2024/03/06 02:30:20;;;;;;;3.77;3.40;;;;;;;6.38;100.00;152998.81;5042078;28;20474;-82
2024/03/06 02:32:47;;;;;;;7.87;3.20;;;;;;;6.33;100.00;152985.91;5030365;28;21050;-82
2024/03/06 02:35:13;;;;;;;4.10;3.00;;;;;;;6.29;100.00;152975.56;5039556;28;20529;-82
2024/03/06 02:37:42;;;;;;;3.70;3.20;;;;;;;6.30;100.00;152979.41;5048736;28;20482;-82
2024/03/06 02:40:09;;;;;;;3.40;2.80;;;;;;;6.24;100.00;152962.66;5046300;28;20451;-82
2024/03/06 02:42:38;;;;;;;3.63;3.17;;;;;;;6.23;100.00;152960.06;5036651;28;20535;-82
2024/03/06 02:45:06;;;;;;;5.37;3.90;;;;;;;6.18;100.00;152947.19;5044551;28;20458;-82
2024/03/06 02:47:32;;;;;;;5.07;3.77;;;;;;;6.17;100.00;152944.63;5046492;28;20501;-83
2024/03/06 02:49:59;;;;;;;4.80;3.50;;;;;;;6.23;100.00;152960.06;5045293;28;20454;-82
2024/03/06 02:52:25;;;;;;;4.80;3.20;;;;;;;6.19;100.00;152949.78;5049887;28;20873;-82
2024/03/06 02:54:53;;;;;;;5.70;4.50;;;;;;;6.21;100.00;152954.94;5043248;28;21083;-82
2024/03/06 02:57:20;;;;;;;4.90;4.10;;;;;;;6.21;100.00;152954.94;5047203;28;21114;-82
2024/03/06 02:59:46;;;;;;;6.27;4.50;;;;;;;6.20;100.00;152952.31;5046549;28;20520;-82
2024/03/06 03:02:13;;;;;;;5.20;4.40;;;;;;;6.19;100.00;152949.78;5051496;28;21223;-82
2024/03/06 03:04:39;;;;;;;6.00;4.63;;;;;;;6.20;100.00;152952.31;5045266;28;20466;-82
2024/03/06 03:07:06;;;;;;;8.30;4.83;;;;;;;6.20;100.00;152953.63;5041858;28;20487;-82
2024/03/06 03:09:33;;;;;;;5.57;5.03;;;;;;;6.20;100.00;152952.31;5029541;28;20502;-82
2024/03/06 03:12:03;;;;;;;8.87;5.70;;;;;;;6.20;100.00;152952.31;5032127;28;20508;-82
2024/03/06 03:14:30;;;;;;;6.20;5.27;;;;;;;6.17;100.00;152944.63;5037518;28;20498;-82
2024/03/06 03:16:56;;;;;;;6.30;4.93;;;;;;;6.16;100.00;152943.31;5045303;28;20478;-81
2024/03/06 03:19:23;;;;;;;8.17;6.50;;;;;;;6.19;100.00;152951.06;5039033;28;20484;-82
2024/03/06 03:21:49;;;;;;;6.00;5.03;;;;;;;6.19;100.00;152951.06;5047179;28;20457;-82
2024/03/06 03:24:16;;;;;;;6.60;5.30;;;;;;;6.20;100.00;152952.31;5045643;28;20463;-82
2024/03/06 03:26:43;;;;;;;7.20;5.27;;;;;;;6.18;100.00;152947.19;5042981;28;20467;-82
2024/03/06 03:29:11;;;;;;;7.07;5.63;;;;;;;6.20;100.00;152953.63;5042203;28;20460;-82
2024/03/06 03:31:38;;;;;;;8.30;5.70;;;;;;;6.19;100.00;152949.78;5048264;28;20442;-82
2024/03/06 03:34:05;;;;;;;5.50;4.80;;;;;;;6.18;100.00;152947.19;5042983;28;20482;-82
2024/03/06 03:36:33;;;;;;;6.30;5.30;;;;;;;6.20;100.00;152952.31;5048666;28;20470;-81
2024/03/06 03:39:37;;;;;;;5.70;4.63;;;;;;;6.20;100.00;152952.31;5004133;28;20448;-82
2024/03/06 03:42:04;;;;;;;5.37;4.20;;;;;;;6.24;100.00;152962.66;5025484;28;20460;-82
2024/03/06 03:44:32;;;;;;;5.93;5.40;;;;;;;6.23;100.00;152960.06;5025427;28;20460;-82
2024/03/06 03:46:59;;;;;;;4.83;4.33;;;;;;;6.25;100.00;152966.53;5024299;28;20444;-82
2024/03/06 03:49:25;;;;;;;6.73;5.43;;;;;;;6.18;100.00;152947.19;5024405;28;20456;-82
2024/03/06 03:51:52;;;;;;;7.13;5.43;;;;;;;6.19;100.00;152949.78;5022827;28;20464;-82
2024/03/06 03:54:18;;;;;;;7.00;5.20;;;;;;;6.19;100.00;152951.06;5024099;28;20460;-82
2024/03/06 03:56:45;;;;;;;8.53;5.67;;;;;;;6.21;100.00;152956.22;5009213;28;20515;-81
2024/03/06 03:59:11;;;;;;;6.30;4.57;;;;;;;6.20;100.00;152953.63;5042748;28;20538;-81
2024/03/06 04:01:39;;;;;;;5.90;4.80;;;;;;;6.20;100.00;152952.31;5024287;28;20512;-81
2024/03/06 04:04:06;;;;;;;6.10;5.20;;;;;;;6.21;100.00;152954.94;5028214;28;20440;-81
2024/03/06 04:06:33;;;;;;;9.77;5.40;;;;;;;6.20;100.00;152952.31;5021586;28;20487;-81
2024/03/06 04:09:00;;;;;;;7.90;5.30;;;;;;;6.18;100.00;152947.19;5012554;28;20894;-81
2024/03/06 04:11:27;;;;;;;7.00;4.93;;;;;;;6.18;100.00;152947.19;5007314;28;20555;-82
2024/03/06 04:13:53;;;;;;;6.63;4.50;;;;;;;6.17;100.00;152944.63;5024645;28;20455;-82
2024/03/06 04:16:20;;;;;;;5.13;4.40;;;;;;;6.15;100.00;152940.72;5016341;28;20515;-82
2024/03/06 04:18:48;;;;;;;6.30;5.00;;;;;;;6.14;100.00;152939.44;5021048;28;20840;-82
2024/03/06 04:21:15;;;;;;;9.10;6.20;;;;;;;6.17;100.00;152944.63;5025983;28;20467;-82
2024/03/06 04:23:41;;;;;;;5.87;4.63;;;;;;;6.15;100.00;152940.72;5026926;28;20830;-81
2024/03/06 04:26:08;;;;;;;6.73;4.87;;;;;;;6.17;100.00;152944.63;4995287;28;20994;-82
2024/03/06 04:28:34;;;;;;;7.17;4.70;;;;;;;6.18;100.00;152947.19;5031817;28;20891;-82
2024/03/06 04:31:01;;;;;;;9.47;5.53;;;;;;;6.16;100.00;152943.31;5026864;28;20455;-81
2024/03/06 04:33:27;;;;;;;5.60;5.07;;;;;;;6.14;100.00;152939.44;5021077;28;20551;-82
2024/03/06 04:35:56;;;;;;;6.17;4.80;;;;;;;6.14;100.00;152939.44;5025519;28;20777;-82
2024/03/06 04:38:22;;;;;;;5.30;4.47;;;;;;;6.14;100.00;152938.19;5025082;28;20846;-82
2024/03/06 04:40:49;;;;;;;6.03;4.87;;;;;;;6.13;100.00;152936.88;5028230;28;20447;-82
2024/03/06 04:43:15;;;;;;;7.50;5.27;;;;;;;6.13;100.00;152936.88;5025882;28;20452;-81
2024/03/06 04:45:42;;;;;;;6.23;4.47;;;;;;;6.14;100.00;152938.19;5020980;28;20459;-81
2024/03/06 04:48:08;;;;;;;6.53;5.43;;;;;;;6.14;100.00;152939.44;5041066;28;20955;-81
2024/03/06 04:50:35;;;;;;;6.70;4.47;;;;;;;6.14;100.00;152939.44;5023238;28;20526;-81
2024/03/06 04:53:03;;;;;;;5.93;4.67;;;;;;;6.13;100.00;152936.88;5020805;28;20496;-81
2024/03/06 04:55:30;;;;;;;6.53;4.90;;;;;;;6.12;100.00;152934.28;5029180;28;20471;-81
2024/03/06 04:57:57;;;;;;;7.30;5.17;;;;;;;6.14;100.00;152938.19;5026418;28;20486;-81
2024/03/06 05:00:23;;;;;;;8.37;5.00;;;;;;;6.14;100.00;152939.44;5023017;28;20464;-81
2024/03/06 05:02:50;;;;;;;8.80;5.33;;;;;;;6.13;100.00;152936.88;5010650;28;20464;-81
2024/03/06 05:05:17;;;;;;;9.13;6.10;;;;;;;6.11;100.00;152931.72;5039132;28;20498;-81
2024/03/06 05:07:43;;;;;;;5.83;4.80;;;;;;;6.12;100.00;152932.97;5016173;28;20495;-81
2024/03/06 05:10:11;;;;;;;7.97;5.40;;;;;;;6.12;100.00;152934.28;5024614;28;20462;-81
2024/03/06 05:12:37;;;;;;;6.33;5.70;;;;;;;6.12;100.00;152932.97;5022814;28;20464;-81
2024/03/06 05:15:05;;;;;;;7.13;5.50;;;;;;;6.09;100.00;152926.53;5028742;28;20502;-81
2024/03/06 05:17:31;;;;;;;5.53;4.70;;;;;;;6.09;100.00;152925.22;5028255;28;20578;-81
2024/03/06 05:19:58;;;;;;;6.50;4.93;;;;;;;6.10;100.00;152927.84;5010257;28;20461;-81
2024/03/06 05:22:26;;;;;;;5.83;5.23;;;;;;;6.08;100.00;152923.97;5040648;28;21013;-81
2024/03/06 05:24:53;;;;;;;7.63;5.50;;;;;;;6.09;100.00;152926.53;5020994;28;20862;-81
2024/03/06 05:27:21;;;;;;;8.90;5.87;;;;;;;6.08;100.00;152923.97;5026242;28;20447;-81
2024/03/06 05:29:48;;;;;;;7.40;5.20;;;;;;;6.09;100.00;152926.53;5013654;28;20456;-81
2024/03/06 05:32:14;;;;;;;9.50;5.43;;;;;;;6.08;100.00;152922.69;5017350;28;20509;-81
2024/03/06 05:34:41;;;;;;;8.50;5.27;;;;;;;6.06;100.00;152918.78;5028811;28;20454;-81
2024/03/06 05:37:08;;;;;;;7.50;5.80;;;;;;;6.06;100.00;152918.78;5023051;28;20469;-81
2024/03/06 05:39:35;;;;;;;6.87;5.20;;;;;;;6.04;100.00;152913.63;5016667;28;21026;-81
2024/03/06 05:42:03;;;;;;;8.17;5.40;;;;;;;6.05;100.00;152916.25;5026165;28;20561;-81
2024/03/06 05:44:31;;;;;;;7.93;5.03;;;;;;;6.06;100.00;152917.53;5024807;28;20494;-81
2024/03/06 05:46:58;;;;;;;6.67;5.00;;;;;;;6.04;100.00;152913.63;5027478;28;20482;-80
2024/03/06 05:49:25;;;;;;;9.10;5.40;;;;;;;6.04;100.00;152913.63;5031642;28;20466;-81
2024/03/06 05:51:52;;;;;;;8.23;5.93;;;;;;;6.04;100.00;152913.63;5047237;28;20451;-81
2024/03/06 05:54:19;;;;;;;7.40;5.77;;;;;;;6.04;100.00;152913.63;5003150;28;20452;-81
2024/03/06 05:56:46;;;;;;;8.13;5.70;;;;;;;6.03;100.00;152911.09;5018235;28;20465;-81
2024/03/06 05:59:13;;;;;;;7.13;5.27;;;;;;;6.05;100.00;152916.25;5019528;28;20839;-81
2024/03/06 06:01:41;;;;;;;8.50;5.10;;;;;;;6.04;100.00;152913.63;5025015;28;20474;-81
2024/03/06 06:04:09;;;;;;;7.43;5.80;;;;;;;6.06;100.00;152917.53;5024328;28;20551;-81
2024/03/06 06:06:35;;;;;;;9.20;6.50;;;;;;;6.04;100.00;152913.63;5005081;28;21086;-81
2024/03/06 06:09:03;;;;;;;6.43;5.47;;;;;;;6.05;100.00;152914.94;5033386;28;20452;-81
2024/03/06 06:11:30;;;;;;;10.90;5.50;;;;;;;6.05;100.00;152914.94;5020518;28;20455;-81
2024/03/06 06:13:56;;;;;;;8.63;5.50;;;;;;;6.04;100.00;152913.63;5017242;28;20507;-81
2024/03/06 06:16:23;;;;;;;6.80;5.50;;;;;;;6.05;100.00;152914.94;5019466;28;20452;-81
2024/03/06 06:18:51;;;;;;;7.57;5.80;;;;;;;6.05;100.00;152916.25;5017052;28;20906;-81
2024/03/06 06:21:18;;;;;;;8.80;6.97;;;;;;;6.02;100.00;152908.50;5030829;28;20467;-81
2024/03/06 06:23:45;;;;;;;8.73;5.33;;;;;;;6.03;100.00;152911.09;5020913;28;20459;-81
2024/03/06 06:26:11;;;;;;;7.60;5.03;;;;;;;6.01;100.00;152904.66;5037757;28;20448;-80
2024/03/06 06:28:38;;;;;;;8.73;5.67;;;;;;;6.02;100.00;152907.19;5019773;28;20506;-81
2024/03/06 06:31:05;;;;;;;9.27;6.00;;;;;;;6.02;100.00;152908.50;5021674;28;20453;-82
2024/03/06 06:33:31;;;;;;;8.57;5.70;;;;;;;6.01;100.00;152905.88;5024654;28;20456;-82
2024/03/06 06:35:59;;;;;;;8.97;5.80;;;;;;;6.01;100.00;152904.66;5019804;28;20796;-82
2024/03/06 06:38:25;;;;;;;7.00;5.50;;;;;;;6.03;100.00;152909.78;5031590;28;20479;-82
2024/03/06 06:40:52;;;;;;;6.73;5.40;;;;;;;6.05;100.00;152914.94;5022132;28;20568;-81
2024/03/06 06:43:21;;;;;;;8.53;5.70;;;;;;;6.03;100.00;152911.09;5019203;28;20453;-81
2024/03/06 06:45:48;;;;;;;10.00;6.27;;;;;;;6.03;100.00;152911.09;5018239;28;20455;-81
2024/03/06 06:48:44;;;;;;;9.07;5.80;;;;;;;6.03;100.00;152911.09;5017522;28;20464;-82
2024/03/06 06:51:12;;;;;;;8.97;5.93;;;;;;;6.04;100.00;152913.63;5019992;28;20548;-81
2024/03/06 06:53:41;;;;;;;8.00;6.10;;;;;;;6.04;100.00;152912.34;5014509;28;20502;-82
2024/03/06 06:56:08;;;;;;;9.00;6.00;;;;;;;6.05;100.00;152916.25;5018060;28;20447;-82
2024/03/06 06:58:34;;;;;;;7.80;6.40;;;;;;;6.08;100.00;152922.69;5021240;28;20875;-81
2024/03/06 07:01:01;;;;;;;7.40;5.73;;;;;;;6.08;100.00;152922.69;5004062;28;20938;-81
2024/03/06 07:03:29;;;;;;;8.40;5.80;;;;;;;6.08;100.00;152923.97;5022138;28;20864;-81
2024/03/06 07:05:56;;;;;;;9.17;6.60;;;;;;;6.08;100.00;152923.97;5022117;28;20456;-81
2024/03/06 07:08:24;;;;;;;8.23;6.40;;;;;;;6.12;100.00;152932.97;5019906;28;20542;-81
2024/03/06 07:10:53;;;;;;;8.93;6.83;;;;;;;6.14;100.00;152939.44;5033397;28;20808;-82
2024/03/06 07:13:19;;;;;;;10.13;6.30;;;;;;;6.22;100.00;152957.53;5018364;28;20521;-81
2024/03/06 07:15:46;;;;;;;7.33;6.00;;;;;;;6.24;100.00;152962.66;5023957;28;20472;-81
2024/03/06 07:18:13;;;;;;;7.67;6.27;;;;;;;6.24;100.00;152962.66;5019561;28;20873;-81
2024/03/06 07:20:40;;;;;;;7.33;6.17;;;;;;;6.24;100.00;152963.97;5001895;28;20460;-81
2024/03/06 07:23:07;;;;;;;8.13;7.00;;;;;;;6.22;100.00;152957.53;5033043;28;20463;-82
2024/03/06 07:25:35;;;;;;;9.37;7.10;;;;;;;6.21;100.00;152954.94;5022618;28;20493;-81
2024/03/06 07:28:02;;;;;;;9.10;7.80;;;;;;;6.23;100.00;152960.06;5020129;28;20448;-81
2024/03/06 07:30:30;;;;;;;9.10;7.80;;;;;;;6.23;100.00;152960.06;5034205;28;20447;-82
2024/03/06 07:32:57;;;;;;;9.00;7.77;;;;;;;6.24;100.00;152963.97;5019189;28;20440;-82
2024/03/06 07:35:24;;;;;;;10.60;7.33;;;;;;;6.27;100.00;152970.41;5015686;28;21318;-81
2024/03/06 07:37:50;;;;;;;9.23;7.30;;;;;;;6.28;100.00;152972.97;5018630;28;20473;-82
2024/03/06 07:40:17;;;;;;;11.10;8.80;;;;;;;6.26;100.00;152967.81;5021093;28;21663;-82
2024/03/06 07:42:45;;;;;;;14.00;8.03;;;;;;;6.27;100.00;152970.41;5017956;28;20455;-82
2024/03/06 07:45:12;;;;;;;12.50;7.60;;;;;;;6.30;100.00;152979.41;5037375;28;20445;-82
2024/03/06 07:47:38;;;;;;;10.43;8.27;;;;;;;6.34;100.00;152988.47;5022062;28;20451;-82
2024/03/06 07:50:06;;;;;;;9.70;6.87;;;;;;;6.35;100.00;152991.06;5020597;28;20947;-82
2024/03/06 07:52:32;;;;;;;10.50;7.60;;;;;;;6.37;100.00;152996.22;5033242;28;20510;-82
2024/03/06 07:54:59;;;;;;;8.93;7.60;;;;;;;6.39;100.00;153002.66;5029952;28;20455;-82
2024/03/06 07:57:26;;;;;;;11.37;7.77;;;;;;;6.38;100.00;152998.81;5017374;28;20444;-82
2024/03/06 07:59:56;;;;;;;10.80;9.20;;;;;;;6.39;100.00;153001.38;5016838;28;20456;-82
2024/03/06 08:02:22;;;;;;;10.80;7.77;;;;;;;6.45;100.00;153018.16;5031277;28;20491;-83
2024/03/06 08:04:49;;;;;;;10.40;7.83;;;;;;;6.47;100.00;153023.31;5017317;28;20460;-82
2024/03/06 08:07:15;;;;;;;11.80;9.17;;;;;;;6.49;100.00;153028.47;5019058;28;20492;-82
2024/03/06 08:09:43;;;;;;;10.03;8.00;;;;;;;6.52;100.00;153034.91;5018684;28;20790;-82
2024/03/06 08:12:09;;;;;;;10.00;8.13;;;;;;;6.57;100.00;153047.81;5021545;28;21055;-82
2024/03/06 08:14:36;;;;;;;10.17;8.03;;;;;;;6.48;100.00;153025.91;5020960;28;21000;-82
2024/03/06 08:17:04;;;;;;;11.43;8.63;;;;;;;6.51;100.00;153032.38;5017594;28;20468;-82
2024/03/06 08:19:30;;;;;;;11.47;8.63;;;;;;;6.51;100.00;153032.38;5032037;28;20472;-83
2024/03/06 08:21:57;;;;;;;10.37;8.60;;;;;;;6.50;100.00;153031.06;5017418;28;20521;-82
2024/03/06 08:24:24;;;;;;;11.63;9.50;;;;;;;6.49;100.00;153027.16;5016542;28;20447;-82
2024/03/06 08:26:50;;;;;;;11.40;9.03;;;;;;;6.49;100.00;153027.16;5022061;28;20459;-82
2024/03/06 08:29:17;;;;;;;11.90;9.67;;;;;;;6.52;100.00;153036.22;5030763;28;20977;-82
2024/03/06 08:31:43;;;;;;;9.10;8.20;;;;;;;6.54;100.00;153041.38;5014173;28;20455;-83
2024/03/06 08:34:11;;;;;;;11.80;9.97;;;;;;;6.56;100.00;153045.25;5018848;28;20471;-82
2024/03/06 08:36:37;;;;;;;10.80;9.33;;;;;;;6.60;100.00;153055.56;5017516;28;20467;-82
2024/03/06 08:39:05;;;;;;;12.03;9.27;;;;;;;6.63;100.00;153063.31;5018270;28;20476;-82
2024/03/06 08:41:31;;;;;;;10.23;8.37;;;;;;;6.64;100.00;153065.91;4998348;28;20459;-82
2024/03/06 08:43:58;;;;;;;9.57;8.00;;;;;;;6.64;100.00;153065.91;5018963;28;20459;-82
2024/03/06 08:46:27;;;;;;;9.50;7.77;;;;;;;6.67;100.00;153073.66;5019230;28;20549;-82
2024/03/06 08:48:54;;;;;;;10.07;8.27;;;;;;;6.67;100.00;153074.91;5030577;28;20453;-82
2024/03/06 08:51:25;;;;;;;8.80;7.77;;;;;;;6.63;100.00;153063.31;5025813;28;20466;-83
2024/03/06 08:53:52;;;;;;;10.27;7.40;;;;;;;6.62;100.00;153062.03;5019584;28;20454;-83
2024/03/06 08:56:18;;;;;;;10.97;7.90;;;;;;;6.63;100.00;153063.31;5015206;28;20526;-82
2024/03/06 08:58:45;;;;;;;9.20;7.87;;;;;;;6.65;100.00;153068.47;5013597;28;20526;-83
2024/03/06 09:01:12;;;;;;;13.00;7.83;;;;;;;6.67;100.00;153074.91;5017500;28;20461;-83
2024/03/06 09:03:42;;;;;;;10.43;8.07;;;;;;;6.66;100.00;153072.38;5016127;28;20459;-83
2024/03/06 09:06:10;;;;;;;9.40;7.93;;;;;;;6.71;100.00;153083.97;5020954;28;20468;-82
2024/03/06 09:08:38;;;;;;;8.30;7.43;;;;;;;6.69;100.00;153078.81;5019746;28;20444;-83
2024/03/06 09:11:05;;;;;;;12.10;7.90;;;;;;;6.70;100.00;153082.66;5019254;28;20487;-83
2024/03/06 09:13:32;;;;;;;8.90;7.20;;;;;;;6.71;100.00;153085.28;5016800;28;20527;-83
2024/03/06 09:15:59;;;;;;;9.70;7.63;;;;;;;6.73;100.00;153089.13;5014775;28;20838;-82
2024/03/06 09:18:26;;;;;;;10.17;8.63;;;;;;;6.72;100.00;153087.81;5031445;28;20779;-82
2024/03/06 09:20:52;;;;;;;11.47;8.13;;;;;;;6.76;100.00;153096.88;5019657;28;20460;-82
2024/03/06 09:23:19;;;;;;;11.23;8.53;;;;;;;6.75;100.00;153095.56;5018078;28;20864;-82
2024/03/06 09:25:48;;;;;;;10.60;9.07;;;;;;;6.73;100.00;153090.41;5017548;28;20452;-82
2024/03/06 09:28:15;;;;;;;11.10;9.07;;;;;;;6.74;100.00;153091.72;5020003;28;20441;-82
2024/03/06 09:30:47;;;;;;;12.40;8.53;;;;;;;6.74;100.00;153091.72;5005892;28;20456;-82
2024/03/06 09:33:13;;;;;;;13.53;9.33;;;;;;;6.77;100.00;153099.47;5031369;28;20487;-82
2024/03/06 09:35:44;;;;;;;13.03;8.70;;;;;;;6.75;100.00;153094.31;5019550;28;20532;-82
2024/03/06 09:38:13;;;;;;;13.90;9.00;;;;;;;6.76;100.00;153096.88;5017004;28;20506;-83
2024/03/06 09:40:40;;;;;;;9.83;8.33;;;;;;;6.71;100.00;153083.97;5020729;28;20535;-82
2024/03/06 09:43:08;;;;;;;9.80;8.53;;;;;;;6.68;100.00;153077.50;5033441;28;20464;-83
2024/03/06 09:45:35;;;;;;;10.57;9.10;;;;;;;6.70;100.00;153081.38;5020265;28;20888;-82
2024/03/06 09:48:02;;;;;;;11.50;9.30;;;;;;;6.69;100.00;153078.81;5021048;28;20497;-81
2024/03/06 09:50:30;;;;;;;10.30;7.90;;;;;;;6.68;100.00;153076.22;5020807;28;20491;-81
2024/03/06 09:52:56;;;;;;;9.33;7.63;;;;;;;6.68;100.00;153076.22;5015250;28;20455;-81
2024/03/06 09:55:23;;;;;;;8.37;7.27;;;;;;;6.68;100.00;153077.50;5020361;28;20465;-81
2024/03/06 09:57:50;;;;;;;10.13;7.87;;;;;;;6.70;100.00;153081.38;5016690;28;20445;-82
2024/03/06 10:00:21;;;;;;;12.47;8.37;;;;;;;6.69;100.00;153078.81;5027676;28;20481;-81
2024/03/06 10:02:52;;;;;;;10.60;8.73;;;;;;;6.71;100.00;153083.97;5058336;23;20529;-82
2024/03/06 10:05:22;;;;;;;11.57;9.00;;;;;;;6.72;100.00;153086.56;5018216;28;20449;-81
2024/03/06 10:07:48;;;;;;;14.80;10.93;;;;;;;6.74;100.00;153091.72;5018289;28;20797;-80
2024/03/06 10:10:16;;;;;;;14.57;10.43;;;;;;;6.78;100.00;153102.03;4997969;28;20982;-81
2024/03/06 10:12:43;;;;;;;12.83;10.33;;;;;;;6.81;100.00;153109.78;4984859;28;20519;-82
2024/03/06 10:15:12;;;;;;;17.53;11.23;;;;;;;6.76;100.00;153096.88;5014459;28;20454;-81
2024/03/06 10:17:40;;;;;;;13.40;10.80;;;;;;;6.76;100.00;153096.88;5017512;28;20553;-81
2024/03/06 10:20:19;;;;;;;14.53;11.13;;;;;;;6.80;100.00;153105.91;5018473;28;20553;-81
2024/03/06 10:22:46;;;;;;;13.57;10.40;;;;;;;6.84;100.00;153117.53;5012847;28;20465;-82
2024/03/06 10:25:12;;;;;;;12.93;10.83;;;;;;;6.87;100.00;153125.28;5020906;28;20467;-81
2024/03/06 10:27:39;;;;;;;14.77;10.90;;;;;;;6.91;100.00;153135.59;5017949;28;20848;-81
2024/03/06 10:30:12;;;;;;;16.60;11.93;;;;;;;6.94;100.00;153142.03;5019022;28;20459;-81
2024/03/06 10:32:41;;;;;;;15.93;10.73;;;;;;;6.94;100.00;153143.34;4998019;28;20567;-82
2024/03/06 10:35:09;;;;;;;14.10;11.37;;;;;;;6.97;100.00;153149.78;5021046;28;20451;-82
2024/03/06 10:37:35;;;;;;;14.80;11.63;;;;;;;6.99;100.00;153156.25;5012035;28;20449;-82
2024/03/06 10:40:05;;;;;;;14.10;11.20;;;;;;;7.03;100.00;153165.28;5002868;28;20476;-82
2024/03/06 10:42:34;;;;;;;16.37;11.27;;;;;;;7.06;100.00;153173.03;4988207;28;20475;-82
2024/03/06 10:45:01;;;;;;;16.30;12.60;;;;;;;7.10;100.00;153184.66;5002194;28;20503;-82
2024/03/06 10:47:34;;;;;;;15.10;12.23;;;;;;;7.12;100.00;153188.56;5010772;28;20451;-81
2024/03/06 10:50:09;;;;;;;17.60;12.53;;;;;;;7.16;100.00;153200.16;5024466;28;20475;-82
2024/03/06 10:52:37;;;;;;;16.17;12.30;;;;;;;7.20;100.00;153210.47;5015203;28;20459;-81
2024/03/06 10:55:06;;;;;;;16.67;12.77;;;;;;;7.17;100.00;153201.47;5001578;28;20461;-81
2024/03/06 10:58:00;;;;;;;15.57;11.73;;;;;;;7.12;100.00;153189.81;5003908;28;20456;-82
2024/03/06 11:04:52;;;;;;;16.73;12.73;;;;;;;7.13;100.00;153192.41;5012531;28;20479;-83
2024/03/06 11:07:20;;;;;;;15.90;12.73;;;;;;;7.14;100.00;153195.00;4996541;28;20464;-82
2024/03/06 11:09:48;;;;;;;20.80;12.17;;;;;;;7.16;100.00;153200.16;4996502;28;20471;-80
2024/03/06 11:12:33;;;;;;;19.03;15.10;;;;;;;7.12;100.00;153188.56;4996992;28;20451;-81
2024/03/06 11:15:00;;;;;;;19.60;14.83;;;;;;;7.10;100.00;153184.66;4995587;28;20531;-81
2024/03/06 11:17:28;;;;;;;19.43;14.37;;;;;;;7.09;100.00;153180.81;4998449;28;20457;-81
2024/03/06 11:20:18;;;;;;;22.00;16.10;;;;;;;7.02;100.00;153164.00;5005371;28;20843;-80
2024/03/06 11:23:11;;;;;;;19.10;14.37;;;;;;;7.00;100.00;153157.53;5000669;28;21228;-80
2024/03/06 11:25:58;;;;;;;20.40;13.23;;;;;;;6.98;100.00;153152.38;4997287;28;20528;-81
2024/03/06 11:28:28;;;;;;;20.27;13.27;;;;;;;6.94;100.00;153143.34;4992819;28;20465;-81